sensor_id;sensor_type;location;lat;lon;timestamp;P1;durP1;ratioP1;P2;durP2;ratioP2
54959;SDS011;40860;51.710;8.736;2023-04-24T00:02:45;1.15;;;0.47;;
54959;SDS011;40860;51.710;8.736;2023-04-24T00:06:48;0.70;;;0.50;;
54959;SDS011;40860;51.710;8.736;2023-04-24T00:10:55;0.50;;;0.50;;
54959;SDS011;40860;51.710;8.736;2023-04-24T00:14:59;0.73;;;0.55;;
54959;SDS011;40860;51.710;8.736;2023-04-24T00:19:02;0.50;;;0.38;;
54959;SDS011;40860;51.710;8.736;2023-04-24T00:23:07;0.80;;;0.65;;
54959;SDS011;40860;51.710;8.736;2023-04-24T00:27:10;0.63;;;0.50;;
54959;SDS011;40860;51.710;8.736;2023-04-24T00:31:14;1.63;;;0.50;;
54959;SDS011;40860;51.710;8.736;2023-04-24T00:35:16;0.50;;;0.50;;
54959;SDS011;40860;51.710;8.736;2023-04-24T00:39:21;0.60;;;0.40;;
54959;SDS011;40860;51.710;8.736;2023-04-24T00:43:24;0.40;;;0.40;;
54959;SDS011;40860;51.710;8.736;2023-04-24T00:47:29;1.15;;;0.50;;
54959;SDS011;40860;51.710;8.736;2023-04-24T00:51:32;0.52;;;0.52;;
54959;SDS011;40860;51.710;8.736;2023-04-24T00:55:35;0.68;;;0.30;;
54959;SDS011;40860;51.710;8.736;2023-04-24T00:59:39;1.95;;;0.45;;
54959;SDS011;40860;51.710;8.736;2023-04-24T01:03:44;0.40;;;0.40;;
54959;SDS011;40860;51.710;8.736;2023-04-24T01:07:47;0.43;;;0.43;;
54959;SDS011;40860;51.710;8.736;2023-04-24T01:11:50;0.38;;;0.30;;
54959;SDS011;40860;51.710;8.736;2023-04-24T01:15:53;0.40;;;0.40;;
54959;SDS011;40860;51.710;8.736;2023-04-24T01:19:57;1.00;;;0.45;;
54959;SDS011;40860;51.710;8.736;2023-04-24T01:24:02;0.35;;;0.35;;
54959;SDS011;40860;51.710;8.736;2023-04-24T01:28:06;0.40;;;0.40;;
54959;SDS011;40860;51.710;8.736;2023-04-24T01:32:09;0.40;;;0.40;;
54959;SDS011;40860;51.710;8.736;2023-04-24T01:36:12;0.77;;;0.40;;
54959;SDS011;40860;51.710;8.736;2023-04-24T01:40:17;1.23;;;0.50;;
54959;SDS011;40860;51.710;8.736;2023-04-24T01:44:20;0.98;;;0.40;;
54959;SDS011;40860;51.710;8.736;2023-04-24T01:48:23;1.65;;;0.60;;
54959;SDS011;40860;51.710;8.736;2023-04-24T01:52:26;0.40;;;0.40;;
54959;SDS011;40860;51.710;8.736;2023-04-24T01:56:34;0.30;;;0.30;;
54959;SDS011;40860;51.710;8.736;2023-04-24T02:00:38;0.57;;;0.57;;
54959;SDS011;40860;51.710;8.736;2023-04-24T02:04:41;0.35;;;0.35;;
54959;SDS011;40860;51.710;8.736;2023-04-24T02:08:44;0.38;;;0.38;;
54959;SDS011;40860;51.710;8.736;2023-04-24T02:12:48;0.63;;;0.50;;
54959;SDS011;40860;51.710;8.736;2023-04-24T02:16:51;0.60;;;0.60;;
54959;SDS011;40860;51.710;8.736;2023-04-24T02:20:54;0.98;;;0.70;;
54959;SDS011;40860;51.710;8.736;2023-04-24T02:24:57;0.73;;;0.70;;
54959;SDS011;40860;51.710;8.736;2023-04-24T02:29:02;0.50;;;0.50;;
54959;SDS011;40860;51.710;8.736;2023-04-24T02:33:04;1.33;;;0.70;;
54959;SDS011;40860;51.710;8.736;2023-04-24T02:37:07;0.50;;;0.50;;
54959;SDS011;40860;51.710;8.736;2023-04-24T02:41:10;0.95;;;0.68;;
54959;SDS011;40860;51.710;8.736;2023-04-24T02:45:15;1.25;;;0.70;;
54959;SDS011;40860;51.710;8.736;2023-04-24T02:49:18;0.85;;;0.60;;
54959;SDS011;40860;51.710;8.736;2023-04-24T02:53:21;0.68;;;0.68;;
54959;SDS011;40860;51.710;8.736;2023-04-24T02:57:25;0.82;;;0.60;;
54959;SDS011;40860;51.710;8.736;2023-04-24T03:01:29;1.13;;;0.90;;
54959;SDS011;40860;51.710;8.736;2023-04-24T03:05:32;0.90;;;0.73;;
54959;SDS011;40860;51.710;8.736;2023-04-24T03:09:35;0.60;;;0.60;;
54959;SDS011;40860;51.710;8.736;2023-04-24T03:13:39;0.98;;;0.40;;
54959;SDS011;40860;51.710;8.736;2023-04-24T03:17:43;0.70;;;0.70;;
54959;SDS011;40860;51.710;8.736;2023-04-24T03:21:46;0.52;;;0.52;;
54959;SDS011;40860;51.710;8.736;2023-04-24T03:25:49;0.82;;;0.60;;
54959;SDS011;40860;51.710;8.736;2023-04-24T03:29:54;1.20;;;0.68;;
54959;SDS011;40860;51.710;8.736;2023-04-24T03:34:14;0.63;;;0.60;;
54959;SDS011;40860;51.710;8.736;2023-04-24T03:38:18;0.73;;;0.55;;
54959;SDS011;40860;51.710;8.736;2023-04-24T03:42:34;0.50;;;0.50;;
54959;SDS011;40860;51.710;8.736;2023-04-24T03:46:40;2.50;;;0.60;;
54959;SDS011;40860;51.710;8.736;2023-04-24T03:50:44;0.73;;;0.65;;
54959;SDS011;40860;51.710;8.736;2023-04-24T03:54:47;1.63;;;0.88;;
54959;SDS011;40860;51.710;8.736;2023-04-24T03:58:55;0.60;;;0.60;;
54959;SDS011;40860;51.710;8.736;2023-04-24T04:03:00;1.52;;;0.80;;
54959;SDS011;40860;51.710;8.736;2023-04-24T04:07:05;1.85;;;0.70;;
54959;SDS011;40860;51.710;8.736;2023-04-24T04:11:09;1.25;;;0.90;;
54959;SDS011;40860;51.710;8.736;2023-04-24T04:15:12;1.30;;;1.20;;
54959;SDS011;40860;51.710;8.736;2023-04-24T04:19:15;2.38;;;1.30;;
54959;SDS011;40860;51.710;8.736;2023-04-24T04:23:20;1.88;;;1.33;;
54959;SDS011;40860;51.710;8.736;2023-04-24T04:27:38;2.78;;;1.38;;
54959;SDS011;40860;51.710;8.736;2023-04-24T04:31:47;1.67;;;1.33;;
54959;SDS011;40860;51.710;8.736;2023-04-24T04:35:50;1.33;;;1.23;;
54959;SDS011;40860;51.710;8.736;2023-04-24T04:39:56;1.52;;;1.42;;
54959;SDS011;40860;51.710;8.736;2023-04-24T04:44:01;1.45;;;1.35;;
54959;SDS011;40860;51.710;8.736;2023-04-24T04:48:06;3.92;;;1.30;;
54959;SDS011;40860;51.710;8.736;2023-04-24T04:52:11;1.50;;;1.40;;
54959;SDS011;40860;51.710;8.736;2023-04-24T04:56:16;2.95;;;2.03;;
54959;SDS011;40860;51.710;8.736;2023-04-24T05:00:20;2.78;;;2.58;;
54959;SDS011;40860;51.710;8.736;2023-04-24T05:04:26;2.67;;;2.33;;
54959;SDS011;40860;51.710;8.736;2023-04-24T05:08:29;3.75;;;3.45;;
54959;SDS011;40860;51.710;8.736;2023-04-24T05:12:35;4.30;;;3.88;;
54959;SDS011;40860;51.710;8.736;2023-04-24T05:16:38;4.63;;;4.22;;
54959;SDS011;40860;51.710;8.736;2023-04-24T05:20:44;5.25;;;4.75;;
54959;SDS011;40860;51.710;8.736;2023-04-24T05:24:47;5.20;;;4.68;;
54959;SDS011;40860;51.710;8.736;2023-04-24T05:29:10;6.25;;;5.20;;
54959;SDS011;40860;51.710;8.736;2023-04-24T05:33:14;7.00;;;6.18;;
54959;SDS011;40860;51.710;8.736;2023-04-24T05:37:17;7.32;;;6.10;;
54959;SDS011;40860;51.710;8.736;2023-04-24T05:41:21;6.90;;;6.22;;
54959;SDS011;40860;51.710;8.736;2023-04-24T05:45:25;6.95;;;6.20;;
54959;SDS011;40860;51.710;8.736;2023-04-24T05:49:28;7.15;;;6.45;;
54959;SDS011;40860;51.710;8.736;2023-04-24T05:53:31;6.50;;;5.85;;
54959;SDS011;40860;51.710;8.736;2023-04-24T05:57:34;5.93;;;5.32;;
54959;SDS011;40860;51.710;8.736;2023-04-24T06:01:39;6.43;;;5.20;;
54959;SDS011;40860;51.710;8.736;2023-04-24T06:05:49;5.55;;;4.80;;
54959;SDS011;40860;51.710;8.736;2023-04-24T06:09:52;5.75;;;5.20;;
54959;SDS011;40860;51.710;8.736;2023-04-24T06:13:56;5.07;;;4.57;;
54959;SDS011;40860;51.710;8.736;2023-04-24T06:18:22;5.10;;;4.70;;
54959;SDS011;40860;51.710;8.736;2023-04-24T06:22:25;5.78;;;5.20;;
54959;SDS011;40860;51.710;8.736;2023-04-24T06:26:28;5.28;;;4.88;;
54959;SDS011;40860;51.710;8.736;2023-04-24T06:30:31;5.93;;;5.10;;
54959;SDS011;40860;51.710;8.736;2023-04-24T06:34:36;6.13;;;5.45;;
54959;SDS011;40860;51.710;8.736;2023-04-24T06:38:38;5.90;;;5.18;;
54959;SDS011;40860;51.710;8.736;2023-04-24T06:42:41;7.03;;;5.85;;
54959;SDS011;40860;51.710;8.736;2023-04-24T06:46:44;6.47;;;5.68;;
54959;SDS011;40860;51.710;8.736;2023-04-24T06:50:48;6.50;;;5.25;;
54959;SDS011;40860;51.710;8.736;2023-04-24T06:54:51;6.13;;;5.40;;
54959;SDS011;40860;51.710;8.736;2023-04-24T06:58:54;6.63;;;5.32;;
54959;SDS011;40860;51.710;8.736;2023-04-24T07:02:57;6.38;;;5.32;;
54959;SDS011;40860;51.710;8.736;2023-04-24T07:07:01;9.30;;;5.20;;
54959;SDS011;40860;51.710;8.736;2023-04-24T07:11:05;6.20;;;5.10;;
54959;SDS011;40860;51.710;8.736;2023-04-24T07:15:08;6.03;;;4.40;;
54959;SDS011;40860;51.710;8.736;2023-04-24T07:19:12;4.70;;;4.30;;
54959;SDS011;40860;51.710;8.736;2023-04-24T07:23:17;5.18;;;4.72;;
54959;SDS011;40860;51.710;8.736;2023-04-24T07:27:20;4.85;;;4.43;;
54959;SDS011;40860;51.710;8.736;2023-04-24T07:31:23;4.35;;;3.95;;
54959;SDS011;40860;51.710;8.736;2023-04-24T07:35:26;4.88;;;4.35;;
54959;SDS011;40860;51.710;8.736;2023-04-24T07:39:30;5.80;;;4.13;;
54959;SDS011;40860;51.710;8.736;2023-04-24T07:43:33;4.45;;;4.00;;
54959;SDS011;40860;51.710;8.736;2023-04-24T07:47:36;4.10;;;3.72;;
54959;SDS011;40860;51.710;8.736;2023-04-24T07:51:40;4.10;;;3.70;;
54959;SDS011;40860;51.710;8.736;2023-04-24T07:55:45;3.70;;;3.40;;
54959;SDS011;40860;51.710;8.736;2023-04-24T07:59:48;3.53;;;3.22;;
54959;SDS011;40860;51.710;8.736;2023-04-24T08:03:51;3.70;;;3.30;;
54959;SDS011;40860;51.710;8.736;2023-04-24T08:07:55;3.53;;;3.22;;
54959;SDS011;40860;51.710;8.736;2023-04-24T08:11:59;3.92;;;3.03;;
54959;SDS011;40860;51.710;8.736;2023-04-24T08:16:02;4.65;;;3.10;;
54959;SDS011;40860;51.710;8.736;2023-04-24T08:20:06;3.00;;;2.80;;
54959;SDS011;40860;51.710;8.736;2023-04-24T08:24:14;3.13;;;2.80;;
54959;SDS011;40860;51.710;8.736;2023-04-24T08:28:18;3.67;;;2.95;;
54959;SDS011;40860;51.710;8.736;2023-04-24T08:32:21;3.55;;;2.95;;
54959;SDS011;40860;51.710;8.736;2023-04-24T08:36:24;4.07;;;2.78;;
54959;SDS011;40860;51.710;8.736;2023-04-24T08:40:44;3.90;;;3.00;;
54959;SDS011;40860;51.710;8.736;2023-04-24T08:44:49;3.60;;;3.30;;
54959;SDS011;40860;51.710;8.736;2023-04-24T08:48:52;3.45;;;3.15;;
54959;SDS011;40860;51.710;8.736;2023-04-24T08:52:55;3.53;;;3.00;;
54959;SDS011;40860;51.710;8.736;2023-04-24T08:56:59;2.85;;;2.58;;
54959;SDS011;40860;51.710;8.736;2023-04-24T09:01:06;2.60;;;2.40;;
54959;SDS011;40860;51.710;8.736;2023-04-24T09:05:09;2.40;;;2.20;;
54959;SDS011;40860;51.710;8.736;2023-04-24T09:09:32;2.78;;;2.15;;
54959;SDS011;40860;51.710;8.736;2023-04-24T09:13:35;2.13;;;1.92;;
54959;SDS011;40860;51.710;8.736;2023-04-24T09:17:43;2.00;;;1.90;;
54959;SDS011;40860;51.710;8.736;2023-04-24T09:21:46;2.60;;;1.77;;
54959;SDS011;40860;51.710;8.736;2023-04-24T09:25:52;1.83;;;1.73;;
54959;SDS011;40860;51.710;8.736;2023-04-24T09:29:59;1.70;;;1.60;;
54959;SDS011;40860;51.710;8.736;2023-04-24T09:34:08;1.30;;;1.20;;
54959;SDS011;40860;51.710;8.736;2023-04-24T09:38:14;2.25;;;1.60;;
54959;SDS011;40860;51.710;8.736;2023-04-24T09:42:17;1.58;;;1.40;;
54959;SDS011;40860;51.710;8.736;2023-04-24T09:46:20;2.85;;;1.50;;
54959;SDS011;40860;51.710;8.736;2023-04-24T09:50:24;1.20;;;1.17;;
54959;SDS011;40860;51.710;8.736;2023-04-24T09:54:27;0.90;;;0.90;;
54959;SDS011;40860;51.710;8.736;2023-04-24T09:58:31;2.00;;;0.75;;
54959;SDS011;40860;51.710;8.736;2023-04-24T10:02:33;0.88;;;0.70;;
54959;SDS011;40860;51.710;8.736;2023-04-24T10:06:38;1.10;;;1.00;;
54959;SDS011;40860;51.710;8.736;2023-04-24T10:10:45;0.88;;;0.88;;
54959;SDS011;40860;51.710;8.736;2023-04-24T10:14:49;0.80;;;0.80;;
54959;SDS011;40860;51.710;8.736;2023-04-24T10:18:53;2.95;;;0.63;;
54959;SDS011;40860;51.710;8.736;2023-04-24T10:22:59;0.47;;;0.47;;
54959;SDS011;40860;51.710;8.736;2023-04-24T10:27:02;1.38;;;0.63;;
54959;SDS011;40860;51.710;8.736;2023-04-24T10:31:06;0.75;;;0.70;;
54959;SDS011;40860;51.710;8.736;2023-04-24T10:35:11;2.80;;;0.60;;
54959;SDS011;40860;51.710;8.736;2023-04-24T10:39:38;1.88;;;0.25;;
54959;SDS011;40860;51.710;8.736;2023-04-24T10:43:42;1.02;;;0.35;;
54959;SDS011;40860;51.710;8.736;2023-04-24T10:47:50;3.33;;;0.20;;
54959;SDS011;40860;51.710;8.736;2023-04-24T10:51:59;1.52;;;0.20;;
54959;SDS011;40860;51.710;8.736;2023-04-24T10:56:18;0.60;;;0.20;;
54959;SDS011;40860;51.710;8.736;2023-04-24T11:00:21;0.43;;;0.20;;
54959;SDS011;40860;51.710;8.736;2023-04-24T11:04:29;0.30;;;0.20;;
54959;SDS011;40860;51.710;8.736;2023-04-24T11:08:47;0.20;;;0.20;;
54959;SDS011;40860;51.710;8.736;2023-04-24T11:12:53;0.60;;;0.20;;
54959;SDS011;40860;51.710;8.736;2023-04-24T11:16:55;1.38;;;1.27;;
54959;SDS011;40860;51.710;8.736;2023-04-24T11:20:59;2.15;;;1.02;;
54959;SDS011;40860;51.710;8.736;2023-04-24T11:25:11;0.50;;;0.40;;
54959;SDS011;40860;51.710;8.736;2023-04-24T11:29:18;0.57;;;0.50;;
54959;SDS011;40860;51.710;8.736;2023-04-24T11:33:41;0.68;;;0.68;;
54959;SDS011;40860;51.710;8.736;2023-04-24T11:37:45;2.15;;;1.50;;
54959;SDS011;40860;51.710;8.736;2023-04-24T11:42:10;1.65;;;1.52;;
54959;SDS011;40860;51.710;8.736;2023-04-24T11:46:19;1.80;;;1.70;;
54959;SDS011;40860;51.710;8.736;2023-04-24T11:50:24;2.08;;;1.77;;
54959;SDS011;40860;51.710;8.736;2023-04-24T11:54:29;1.90;;;1.80;;
54959;SDS011;40860;51.710;8.736;2023-04-24T11:58:34;1.90;;;1.75;;
54959;SDS011;40860;51.710;8.736;2023-04-24T12:02:39;1.75;;;1.40;;
54959;SDS011;40860;51.710;8.736;2023-04-24T12:11:03;1.73;;;1.63;;
54959;SDS011;40860;51.710;8.736;2023-04-24T12:15:08;1.77;;;1.48;;
54959;SDS011;40860;51.710;8.736;2023-04-24T12:19:18;1.75;;;1.65;;
54959;SDS011;40860;51.710;8.736;2023-04-24T12:23:35;1.80;;;1.70;;
54959;SDS011;40860;51.710;8.736;2023-04-24T12:27:38;1.73;;;1.63;;
54959;SDS011;40860;51.710;8.736;2023-04-24T12:31:41;1.88;;;1.65;;
54959;SDS011;40860;51.710;8.736;2023-04-24T12:35:45;2.20;;;2.10;;
54959;SDS011;40860;51.710;8.736;2023-04-24T12:39:58;2.85;;;2.58;;
54959;SDS011;40860;51.710;8.736;2023-04-24T12:44:01;2.72;;;2.50;;
54959;SDS011;40860;51.710;8.736;2023-04-24T12:48:04;4.50;;;3.17;;
54959;SDS011;40860;51.710;8.736;2023-04-24T12:52:09;3.40;;;3.10;;
54959;SDS011;40860;51.710;8.736;2023-04-24T12:56:11;2.97;;;2.78;;
54959;SDS011;40860;51.710;8.736;2023-04-24T13:00:14;4.07;;;3.58;;
54959;SDS011;40860;51.710;8.736;2023-04-24T13:04:20;4.95;;;4.15;;
54959;SDS011;40860;51.710;8.736;2023-04-24T13:08:25;5.43;;;4.80;;
54959;SDS011;40860;51.710;8.736;2023-04-24T13:12:28;5.45;;;4.38;;
54959;SDS011;40860;51.710;8.736;2023-04-24T13:16:31;7.80;;;5.47;;
54959;SDS011;40860;51.710;8.736;2023-04-24T13:20:34;5.00;;;4.20;;
54959;SDS011;40860;51.710;8.736;2023-04-24T13:24:39;5.28;;;4.63;;
54959;SDS011;40860;51.710;8.736;2023-04-24T13:28:42;8.85;;;5.03;;
54959;SDS011;40860;51.710;8.736;2023-04-24T13:32:46;9.15;;;4.93;;
54959;SDS011;40860;51.710;8.736;2023-04-24T13:36:49;8.45;;;5.78;;
54959;SDS011;40860;51.710;8.736;2023-04-24T13:40:55;7.70;;;5.00;;
54959;SDS011;40860;51.710;8.736;2023-04-24T13:44:58;10.23;;;5.78;;
54959;SDS011;40860;51.710;8.736;2023-04-24T13:49:14;8.75;;;5.90;;
54959;SDS011;40860;51.710;8.736;2023-04-24T13:53:17;10.43;;;5.68;;
54959;SDS011;40860;51.710;8.736;2023-04-24T13:57:22;11.23;;;6.53;;
54959;SDS011;40860;51.710;8.736;2023-04-24T14:01:25;10.82;;;6.93;;
54959;SDS011;40860;51.710;8.736;2023-04-24T14:05:28;12.32;;;8.00;;
54959;SDS011;40860;51.710;8.736;2023-04-24T14:09:31;13.18;;;8.38;;
54959;SDS011;40860;51.710;8.736;2023-04-24T14:13:35;16.13;;;9.20;;
54959;SDS011;40860;51.710;8.736;2023-04-24T14:17:39;16.25;;;10.15;;
54959;SDS011;40860;51.710;8.736;2023-04-24T14:21:41;14.88;;;9.65;;
54959;SDS011;40860;51.710;8.736;2023-04-24T14:25:45;16.67;;;9.23;;
54959;SDS011;40860;51.710;8.736;2023-04-24T14:29:53;15.80;;;9.80;;
54959;SDS011;40860;51.710;8.736;2023-04-24T14:33:56;14.68;;;9.25;;
54959;SDS011;40860;51.710;8.736;2023-04-24T14:37:59;13.70;;;9.40;;
54959;SDS011;40860;51.710;8.736;2023-04-24T14:42:02;15.40;;;9.70;;
54959;SDS011;40860;51.710;8.736;2023-04-24T14:46:06;10.55;;;7.35;;
54959;SDS011;40860;51.710;8.736;2023-04-24T14:50:10;9.65;;;5.97;;
54959;SDS011;40860;51.710;8.736;2023-04-24T14:54:13;5.95;;;4.15;;
54959;SDS011;40860;51.710;8.736;2023-04-24T14:58:16;5.63;;;5.00;;
54959;SDS011;40860;51.710;8.736;2023-04-24T15:02:21;10.63;;;4.43;;
54959;SDS011;40860;51.710;8.736;2023-04-24T15:06:24;7.00;;;4.47;;
54959;SDS011;40860;51.710;8.736;2023-04-24T15:10:27;6.80;;;4.80;;
54959;SDS011;40860;51.710;8.736;2023-04-24T15:14:30;8.23;;;4.50;;
54959;SDS011;40860;51.710;8.736;2023-04-24T15:18:35;7.60;;;4.47;;
54959;SDS011;40860;51.710;8.736;2023-04-24T15:22:39;5.15;;;4.00;;
54959;SDS011;40860;51.710;8.736;2023-04-24T15:26:42;7.57;;;4.30;;
54959;SDS011;40860;51.710;8.736;2023-04-24T15:30:44;7.53;;;4.70;;
54959;SDS011;40860;51.710;8.736;2023-04-24T15:34:49;6.35;;;4.35;;
54959;SDS011;40860;51.710;8.736;2023-04-24T15:39:08;4.97;;;4.20;;
54959;SDS011;40860;51.710;8.736;2023-04-24T15:43:11;6.53;;;4.20;;
54959;SDS011;40860;51.710;8.736;2023-04-24T15:47:15;4.80;;;3.92;;
54959;SDS011;40860;51.710;8.736;2023-04-24T15:51:19;6.75;;;3.95;;
54959;SDS011;40860;51.710;8.736;2023-04-24T15:55:22;4.97;;;3.83;;
54959;SDS011;40860;51.710;8.736;2023-04-24T15:59:25;5.50;;;3.95;;
54959;SDS011;40860;51.710;8.736;2023-04-24T16:03:30;5.28;;;3.95;;
54959;SDS011;40860;51.710;8.736;2023-04-24T16:07:34;6.07;;;4.38;;
54959;SDS011;40860;51.710;8.736;2023-04-24T16:11:40;7.55;;;5.03;;
54959;SDS011;40860;51.710;8.736;2023-04-24T16:15:43;4.88;;;3.88;;
54959;SDS011;40860;51.710;8.736;2023-04-24T16:19:49;5.35;;;4.70;;
54959;SDS011;40860;51.710;8.736;2023-04-24T16:23:53;4.20;;;3.90;;
54959;SDS011;40860;51.710;8.736;2023-04-24T16:27:56;4.18;;;3.63;;
54959;SDS011;40860;51.710;8.736;2023-04-24T16:32:03;5.55;;;3.53;;
54959;SDS011;40860;51.710;8.736;2023-04-24T16:36:06;3.85;;;3.55;;
54959;SDS011;40860;51.710;8.736;2023-04-24T16:40:11;4.93;;;3.88;;
54959;SDS011;40860;51.710;8.736;2023-04-24T16:44:14;4.75;;;4.10;;
54959;SDS011;40860;51.710;8.736;2023-04-24T16:48:17;4.95;;;4.45;;
54959;SDS011;40860;51.710;8.736;2023-04-24T16:52:22;6.13;;;5.15;;
54959;SDS011;40860;51.710;8.736;2023-04-24T16:56:26;6.47;;;4.82;;
54959;SDS011;40860;51.710;8.736;2023-04-24T17:00:29;7.28;;;4.65;;
54959;SDS011;40860;51.710;8.736;2023-04-24T17:04:39;5.72;;;4.65;;
54959;SDS011;40860;51.710;8.736;2023-04-24T17:08:42;6.03;;;5.10;;
54959;SDS011;40860;51.710;8.736;2023-04-24T17:12:46;6.45;;;4.57;;
54959;SDS011;40860;51.710;8.736;2023-04-24T17:21:20;5.20;;;4.70;;
54959;SDS011;40860;51.710;8.736;2023-04-24T17:25:23;6.60;;;4.28;;
54959;SDS011;40860;51.710;8.736;2023-04-24T17:29:32;6.18;;;4.60;;
54959;SDS011;40860;51.710;8.736;2023-04-24T17:33:35;5.97;;;4.88;;
54959;SDS011;40860;51.710;8.736;2023-04-24T17:37:38;5.13;;;4.63;;
54959;SDS011;40860;51.710;8.736;2023-04-24T17:41:41;5.47;;;4.03;;
54959;SDS011;40860;51.710;8.736;2023-04-24T17:45:45;4.85;;;2.63;;
54959;SDS011;40860;51.710;8.736;2023-04-24T17:49:48;3.63;;;2.78;;
54959;SDS011;40860;51.710;8.736;2023-04-24T17:53:52;4.30;;;2.50;;
54959;SDS011;40860;51.710;8.736;2023-04-24T17:57:55;4.38;;;2.10;;
54959;SDS011;40860;51.710;8.736;2023-04-24T18:02:01;4.45;;;2.55;;
54959;SDS011;40860;51.710;8.736;2023-04-24T18:06:04;3.35;;;2.95;;
54959;SDS011;40860;51.710;8.736;2023-04-24T18:10:17;3.70;;;2.58;;
54959;SDS011;40860;51.710;8.736;2023-04-24T18:14:20;4.43;;;2.47;;
54959;SDS011;40860;51.710;8.736;2023-04-24T18:18:24;5.03;;;2.80;;
54959;SDS011;40860;51.710;8.736;2023-04-24T18:22:28;4.50;;;2.60;;
54959;SDS011;40860;51.710;8.736;2023-04-24T18:26:31;4.40;;;2.83;;
54959;SDS011;40860;51.710;8.736;2023-04-24T18:30:34;5.30;;;3.13;;
54959;SDS011;40860;51.710;8.736;2023-04-24T18:34:39;4.20;;;3.17;;
54959;SDS011;40860;51.710;8.736;2023-04-24T18:38:42;3.22;;;2.85;;
54959;SDS011;40860;51.710;8.736;2023-04-24T18:42:44;5.00;;;3.35;;
54959;SDS011;40860;51.710;8.736;2023-04-24T18:46:47;5.05;;;3.88;;
54959;SDS011;40860;51.710;8.736;2023-04-24T18:50:52;4.53;;;3.47;;
54959;SDS011;40860;51.710;8.736;2023-04-24T18:54:54;4.53;;;3.45;;
54959;SDS011;40860;51.710;8.736;2023-04-24T18:58:57;6.57;;;3.53;;
54959;SDS011;40860;51.710;8.736;2023-04-24T19:03:14;5.75;;;3.92;;
54959;SDS011;40860;51.710;8.736;2023-04-24T19:07:19;5.70;;;4.10;;
54959;SDS011;40860;51.710;8.736;2023-04-24T19:11:22;4.53;;;4.10;;
54959;SDS011;40860;51.710;8.736;2023-04-24T19:15:25;5.07;;;4.40;;
54959;SDS011;40860;51.710;8.736;2023-04-24T19:19:29;6.90;;;4.20;;
54959;SDS011;40860;51.710;8.736;2023-04-24T19:23:34;6.10;;;4.63;;
54959;SDS011;40860;51.710;8.736;2023-04-24T19:27:39;5.60;;;4.85;;
54959;SDS011;40860;51.710;8.736;2023-04-24T19:31:42;6.32;;;4.72;;
54959;SDS011;40860;51.710;8.736;2023-04-24T19:35:45;6.47;;;5.13;;
54959;SDS011;40860;51.710;8.736;2023-04-24T19:39:50;4.47;;;4.07;;
54959;SDS011;40860;51.710;8.736;2023-04-24T19:43:53;5.75;;;4.00;;
54959;SDS011;40860;51.710;8.736;2023-04-24T19:47:55;6.30;;;4.65;;
54959;SDS011;40860;51.710;8.736;2023-04-24T19:52:00;4.65;;;3.97;;
54959;SDS011;40860;51.710;8.736;2023-04-24T19:56:04;6.05;;;3.80;;
54959;SDS011;40860;51.710;8.736;2023-04-24T20:00:07;5.93;;;3.58;;
54959;SDS011;40860;51.710;8.736;2023-04-24T20:04:11;6.22;;;3.90;;
54959;SDS011;40860;51.710;8.736;2023-04-24T20:08:14;6.40;;;3.60;;
54959;SDS011;40860;51.710;8.736;2023-04-24T20:12:19;5.30;;;3.63;;
54959;SDS011;40860;51.710;8.736;2023-04-24T20:16:23;6.57;;;3.53;;
54959;SDS011;40860;51.710;8.736;2023-04-24T20:20:26;5.22;;;3.33;;
54959;SDS011;40860;51.710;8.736;2023-04-24T20:24:29;5.55;;;3.58;;
54959;SDS011;40860;51.710;8.736;2023-04-24T20:28:33;8.32;;;4.03;;
54959;SDS011;40860;51.710;8.736;2023-04-24T20:32:35;7.38;;;3.75;;
54959;SDS011;40860;51.710;8.736;2023-04-24T20:36:39;6.97;;;4.18;;
54959;SDS011;40860;51.710;8.736;2023-04-24T20:40:48;10.23;;;4.55;;
54959;SDS011;40860;51.710;8.736;2023-04-24T20:44:59;7.93;;;4.30;;
54959;SDS011;40860;51.710;8.736;2023-04-24T20:49:02;6.80;;;4.55;;
54959;SDS011;40860;51.710;8.736;2023-04-24T20:53:05;8.80;;;4.50;;
54959;SDS011;40860;51.710;8.736;2023-04-24T20:57:09;8.90;;;5.13;;
54959;SDS011;40860;51.710;8.736;2023-04-24T21:01:13;8.85;;;4.22;;
54959;SDS011;40860;51.710;8.736;2023-04-24T21:05:17;9.85;;;4.97;;
54959;SDS011;40860;51.710;8.736;2023-04-24T21:09:20;9.07;;;4.65;;
54959;SDS011;40860;51.710;8.736;2023-04-24T21:13:22;10.55;;;5.40;;
54959;SDS011;40860;51.710;8.736;2023-04-24T21:17:31;8.10;;;4.88;;
54959;SDS011;40860;51.710;8.736;2023-04-24T21:21:34;8.32;;;4.60;;
54959;SDS011;40860;51.710;8.736;2023-04-24T21:25:37;7.95;;;5.13;;
54959;SDS011;40860;51.710;8.736;2023-04-24T21:29:40;7.75;;;5.00;;
54959;SDS011;40860;51.710;8.736;2023-04-24T21:33:44;10.35;;;5.35;;
54959;SDS011;40860;51.710;8.736;2023-04-24T21:37:48;12.68;;;5.65;;
54959;SDS011;40860;51.710;8.736;2023-04-24T21:41:50;11.82;;;5.40;;
54959;SDS011;40860;51.710;8.736;2023-04-24T21:45:53;9.48;;;5.00;;
54959;SDS011;40860;51.710;8.736;2023-04-24T21:49:58;9.93;;;6.00;;
54959;SDS011;40860;51.710;8.736;2023-04-24T21:54:01;13.10;;;6.30;;
54959;SDS011;40860;51.710;8.736;2023-04-24T21:58:04;12.65;;;6.13;;
54959;SDS011;40860;51.710;8.736;2023-04-24T22:02:07;11.43;;;6.47;;
54959;SDS011;40860;51.710;8.736;2023-04-24T22:06:11;14.93;;;6.25;;
54959;SDS011;40860;51.710;8.736;2023-04-24T22:10:15;11.95;;;6.20;;
54959;SDS011;40860;51.710;8.736;2023-04-24T22:14:18;9.80;;;6.38;;
54959;SDS011;40860;51.710;8.736;2023-04-24T22:18:21;12.35;;;6.30;;
54959;SDS011;40860;51.710;8.736;2023-04-24T22:22:41;14.55;;;6.43;;
54959;SDS011;40860;51.710;8.736;2023-04-24T22:26:44;9.85;;;5.80;;
54959;SDS011;40860;51.710;8.736;2023-04-24T22:30:47;11.52;;;5.95;;
54959;SDS011;40860;51.710;8.736;2023-04-24T22:34:50;11.48;;;6.28;;
54959;SDS011;40860;51.710;8.736;2023-04-24T22:38:58;11.00;;;6.00;;
54959;SDS011;40860;51.710;8.736;2023-04-24T22:43:01;13.32;;;5.65;;
54959;SDS011;40860;51.710;8.736;2023-04-24T22:47:04;11.35;;;6.20;;
54959;SDS011;40860;51.710;8.736;2023-04-24T22:51:08;9.40;;;5.43;;
54959;SDS011;40860;51.710;8.736;2023-04-24T22:55:12;12.70;;;6.13;;
54959;SDS011;40860;51.710;8.736;2023-04-24T22:59:15;9.00;;;5.47;;
54959;SDS011;40860;51.710;8.736;2023-04-24T23:03:18;10.52;;;5.93;;
54959;SDS011;40860;51.710;8.736;2023-04-24T23:07:21;12.32;;;5.85;;
54959;SDS011;40860;51.710;8.736;2023-04-24T23:11:25;10.98;;;5.95;;
54959;SDS011;40860;51.710;8.736;2023-04-24T23:15:28;11.98;;;5.97;;
54959;SDS011;40860;51.710;8.736;2023-04-24T23:19:31;9.48;;;5.72;;
54959;SDS011;40860;51.710;8.736;2023-04-24T23:23:34;14.35;;;6.63;;
54959;SDS011;40860;51.710;8.736;2023-04-24T23:27:38;11.80;;;5.95;;
54959;SDS011;40860;51.710;8.736;2023-04-24T23:31:41;16.05;;;6.05;;
54959;SDS011;40860;51.710;8.736;2023-04-24T23:35:44;14.35;;;6.38;;
54959;SDS011;40860;51.710;8.736;2023-04-24T23:39:47;14.10;;;6.68;;
54959;SDS011;40860;51.710;8.736;2023-04-24T23:43:52;10.75;;;6.63;;
54959;SDS011;40860;51.710;8.736;2023-04-24T23:47:55;16.23;;;7.05;;
54959;SDS011;40860;51.710;8.736;2023-04-24T23:51:57;12.48;;;6.78;;
54959;SDS011;40860;51.710;8.736;2023-04-24T23:56:00;14.70;;;6.80;;
